Latest Weather Observations for Grafton AgRS

IDN60801

Issued at 3:03 pm EDT Saturday 29 February 2020 (issued every 10 minutes, with the page automatically refreshed every 10 minutes)

About weather observations | Map of weather stations | Latest weather observations for NSW | Other Formats
Station Details ID: 058077 Name: GRAFTON RESEARCH STN Lat: -29.62 Lon: 152.96 Height: 25.0 m
Data from the previous 72 hours. | See also: Recent months at Grafton AgRS
Date/Time
EDT
Temp
°C
App
Temp
°C
Dew
Point
°C
Rel
Hum
%
Delta-T
°C
Wind Press
QNH
hPa
Press
MSL
hPa
Rain since
9am
mm
Dir  Spd
km/h
Gust
km/h
Spd
kts
Gust
kts
29/03:00pm 28.5 29.6 18.9 56 6.2 ESE 11 22 6 12 - - 0.0
29/02:30pm 28.8 29.4 20.3 60 5.6 SSE 17 20 9 11 - - 0.0
29/02:00pm 27.9 29.5 19.1 58 5.7 SE 9 15 5 8 - - 0.0
29/01:30pm 27.5 28.2 19.6 62 5.1 SE 15 20 8 11 - - 0.0
29/01:00pm 27.4 28.6 20.0 64 4.8 SSE 13 19 7 10 - - 0.0
29/12:30pm 26.9 27.5 19.5 64 4.8 SE 15 20 8 11 - - 0.0
29/12:00pm 26.7 28.0 20.1 67 4.3 SE 13 20 7 11 - - 0.0
29/11:30am 26.3 27.4 19.7 67 4.3 SSE 13 17 7 9 - - 0.0
29/11:00am 25.6 26.7 19.7 70 3.8 SSE 13 19 7 10 - - 0.0
29/10:30am 25.1 25.9 19.0 69 3.9 SSW 13 20 7 11 - - 0.0
29/10:00am 25.4 25.5 20.0 72 3.5 S 19 26 10 14 - - 0.0
29/09:30am 24.8 25.1 18.7 69 3.9 S 15 22 8 12 - - 0.0
29/09:00am 24.1 24.5 18.1 69 3.8 S 13 20 7 11 - - 1.6
29/08:30am 23.5 24.4 17.5 69 3.7 SW 9 13 5 7 - - 1.6
29/08:00am 22.5 23.4 17.6 74 3.0 SW 9 11 5 6 - - 1.6
29/07:30am 21.4 22.8 17.4 78 2.5 WSW 6 7 3 4 - - 1.6
29/07:00am 20.9 21.9 16.9 78 2.4 SW 7 11 4 6 - - 1.6
29/06:30am 21.1 22.1 16.9 77 2.6 SSW 7 11 4 6 - - 1.6
29/06:00am 21.1 21.7 16.9 77 2.6 SSW 9 11 5 6 - - 1.6
29/05:30am 21.4 22.5 17.2 77 2.6 SW 7 11 4 6 - - 1.6
29/05:00am 21.6 22.7 17.2 76 2.7 SW 7 9 4 5 - - 1.6
29/04:30am 21.5 22.8 17.5 78 2.5 SW 7 9 4 5 - - 1.6
29/04:00am 21.7 23.1 17.7 78 2.5 WSW 7 9 4 5 - - 1.6
29/03:30am 21.8 23.3 18.0 79 2.4 SW 7 9 4 5 - - 1.6
29/03:00am 21.9 23.5 18.3 80 2.3 SW 7 11 4 6 - - 1.6
29/02:30am 21.8 23.5 18.4 81 2.1 WSW 7 11 4 6 - - 1.6
29/02:00am 21.9 23.5 18.3 80 2.3 WSW 7 11 4 6 - - 1.6
29/01:30am 21.9 22.6 17.9 78 2.5 SSW 11 15 6 8 - - 1.6
29/01:00am 22.4 22.4 18.2 77 2.6 S 15 19 8 10 - - 1.6
29/12:30am 22.7 23.1 18.9 79 2.4 S 15 24 8 13 - - 1.6
29/12:00am 22.7 23.7 19.5 82 2.0 S 13 19 7 10 - - 1.6
 
Date/Time
EDT
Temp
°C
App
Temp
°C
Dew
Point
°C
Rel
Hum
%
Delta-T
°C
Wind Press
QNH
hPa
Press
MSL
hPa
Rain since
9am
mm
Dir  Spd
km/h
Gust
km/h
Spd
kts
Gust
kts
28/11:30pm 22.7 24.2 19.7 83 1.9 SSE 11 19 6 10 - - 1.6
28/11:00pm 22.9 24.4 19.7 82 2.1 S 11 15 6 8 - - 1.6
28/10:30pm 22.8 23.3 20.0 84 1.8 S 17 28 9 15 - - 1.6
28/10:00pm 23.1 22.5 20.4 85 1.8 SSE 24 33 13 18 - - 1.6
28/09:30pm 23.3 25.7 22.3 94 0.7 SSE 13 19 7 10 - - 1.6
28/09:00pm 23.0 25.3 22.0 94 0.7 ESE 13 20 7 11 - - 1.6
28/08:30pm 22.8 24.3 22.0 95 0.5 ESE 17 24 9 13 - - 1.6
28/08:00pm 23.3 23.4 21.9 92 0.9 SE 24 35 13 19 - - 0.2
28/07:46pm 24.6 25.4 21.3 82 2.2 SSE 19 43 10 23 - - 0.0
28/07:30pm 25.4 27.7 22.1 82 2.2 SE 13 20 7 11 - - 0.0
28/07:00pm 25.7 28.2 21.8 79 2.6 ESE 11 17 6 9 - - 0.0
28/06:30pm 26.3 27.4 21.9 77 2.9 ESE 19 28 10 15 - - 0.0
28/06:00pm 27.0 29.0 22.2 75 3.2 ESE 15 22 8 12 - - 0.0
28/05:30pm 27.4 28.3 21.9 72 3.7 ESE 20 28 11 15 - - 0.0
28/05:00pm 28.6 28.6 21.6 66 4.7 SE 24 32 13 17 - - 0.0
28/04:30pm 29.2 29.3 21.2 62 5.3 SE 22 28 12 15 - - 0.0
28/04:00pm 29.7 30.3 21.4 61 5.6 ESE 20 28 11 15 - - 0.0
28/03:30pm 29.2 29.7 20.9 61 5.5 ESE 19 26 10 14 - - 0.0
28/03:00pm 28.8 29.9 21.3 64 5.0 ESE 17 22 9 12 - - 0.0
28/02:30pm 29.9 31.5 22.9 66 4.8 E 19 28 10 15 - - 0.0
28/02:00pm 30.3 33.5 23.0 65 5.0 ESE 11 17 6 9 - - 0.0
28/01:30pm 29.1 31.4 22.1 66 4.7 E 13 19 7 10 - - 0.0
28/01:00pm 28.9 31.5 21.9 66 4.7 ESE 11 13 6 7 - - 0.0
28/12:30pm 29.3 32.5 22.3 66 4.7 SSE 9 15 5 8 - - 0.0
28/12:00pm 28.9 33.2 22.6 69 4.3 WSW 4 13 2 7 - - 0.0
28/11:30am 28.7 32.3 22.4 68 4.3 W 7 13 4 7 - - 0.0
28/11:00am 27.8 31.5 22.3 72 3.7 SSW 6 11 3 6 - - 0.0
28/10:30am 27.2 31.5 22.6 76 3.1 SSE 4 9 2 5 - - 0.0
28/10:00am 25.9 29.4 22.2 80 2.5 SSW 7 9 4 5 - - 0.0
28/09:30am 25.5 30.2 22.0 81 2.3 CALM 0 0 0 0 - - 0.0
28/09:00am 24.5 29.4 22.4 88 1.4 CALM 0 0 0 0 - - 0.2
28/08:30am 22.9 27.5 21.7 93 0.8 CALM 0 6 0 3 - - 0.2
28/08:00am 22.2 26.8 21.7 97 0.3 CALM 0 0 0 0 - - 0.2
28/07:30am 21.3 25.5 21.0 98 0.2 CALM 0 4 0 2 - - 0.2
28/07:00am 20.4 23.7 19.9 97 0.3 WNW 2 7 1 4 - - 0.2
28/06:30am 20.7 24.5 20.2 97 0.3 CALM 0 0 0 0 - - 0.2
28/06:00am 20.9 24.8 20.4 97 0.3 CALM 0 0 0 0 - - 0.2
28/05:30am 20.9 24.7 20.2 96 0.4 CALM 0 0 0 0 - - 0.2
28/05:00am 21.1 25.1 20.6 97 0.3 CALM 0 0 0 0 - - 0.2
28/04:30am 21.2 25.2 20.5 96 0.5 CALM 0 0 0 0 - - 0.2
28/04:00am 21.5 25.6 20.8 96 0.5 CALM 0 0 0 0 - - 0.2
28/03:30am 21.4 25.4 20.6 95 0.5 CALM 0 0 0 0 - - 0.2
28/03:00am 21.3 25.3 20.5 95 0.5 CALM 0 0 0 0 - - 0.2
28/02:30am 21.7 25.9 20.9 95 0.5 CALM 0 0 0 0 - - 0.2
28/02:00am 21.8 24.7 21.0 95 0.5 W 7 9 4 5 - - 0.2
28/01:30am 21.9 26.2 21.1 95 0.5 CALM 0 0 0 0 - - 0.2
28/01:00am 21.9 26.2 21.1 95 0.5 CALM 0 0 0 0 - - 0.2
28/12:30am 21.8 25.9 20.8 94 0.6 CALM 0 0 0 0 - - 0.2
28/12:00am 22.0 26.2 21.0 94 0.7 CALM 0 0 0 0 - - 0.2
 
Date/Time
EDT
Temp
°C
App
Temp
°C
Dew
Point
°C
Rel
Hum
%
Delta-T
°C
Wind Press
QNH
hPa
Press
MSL
hPa
Rain since
9am
mm
Dir  Spd
km/h
Gust
km/h
Spd
kts
Gust
kts
27/11:30pm 22.1 25.5 20.9 93 0.8 WNW 4 7 2 4 - - 0.2
27/11:00pm 22.2 26.0 21.0 93 0.8 W 2 7 1 4 - - 0.2
27/10:30pm 22.5 25.4 21.1 92 0.9 W 7 11 4 6 - - 0.2
27/10:00pm 22.8 25.5 21.4 92 0.9 W 9 11 5 6 - - 0.2
27/09:30pm 22.8 26.1 21.4 92 0.9 WSW 6 11 3 6 - - 0.2
27/09:00pm 23.0 26.1 21.5 91 1.0 WSW 7 9 4 5 - - 0.2
27/08:30pm 23.2 25.9 21.3 89 1.2 WSW 9 13 5 7 - - 0.2
27/08:00pm 23.7 26.7 21.2 86 1.6 SE 7 11 4 6 - - 0.2
27/07:30pm 24.0 26.7 21.3 85 1.8 SSW 9 11 5 6 - - 0.2
27/07:00pm 24.5 27.6 21.0 81 2.3 ESE 6 13 3 7 - - 0.0
27/06:30pm 25.3 28.0 21.4 79 2.6 E 9 13 5 7 - - 0.0
27/06:00pm 25.9 27.3 21.1 75 3.2 SE 15 20 8 11 - - 0.0
27/05:30pm 26.6 27.0 20.7 70 3.9 ESE 19 28 10 15 - - 0.0
27/05:00pm 27.6 28.3 21.2 68 4.3 ESE 19 26 10 14 - - 0.0
27/04:30pm 28.2 29.0 21.7 68 4.4 ESE 20 28 11 15 - - 0.0
27/04:00pm 28.9 29.1 20.1 59 5.8 E 19 30 10 16 - - 0.0
27/03:30pm 29.3 29.2 20.7 59 5.7 ESE 22 32 12 17 - - 0.0
27/03:00pm 28.6 28.5 19.5 58 5.9 ESE 19 24 10 13 - - 0.0
27/02:30pm 28.8 30.7 21.3 64 5.0 SE 13 17 7 9 - - 0.0
27/02:00pm 28.9 30.3 21.1 62 5.2 E 15 26 8 14 - - 0.0
27/01:30pm 29.0 31.0 21.5 64 5.0 SE 13 20 7 11 - - 0.0
27/01:00pm 28.8 31.3 21.8 66 4.7 SE 11 19 6 10 - - 0.0
27/12:30pm 27.9 30.2 20.7 65 4.8 E 9 15 5 8 - - 0.0
27/12:00pm 27.9 30.5 21.2 67 4.5 ESE 9 17 5 9 - - 0.0
27/11:30am 27.5 30.2 21.3 69 4.1 SSE 9 15 5 8 - - 0.0
27/11:00am 27.0 28.4 20.3 66 4.4 SE 13 20 7 11 - - 0.0
27/10:30am 26.7 28.9 20.5 69 4.1 SE 9 17 5 9 - - 0.0
27/10:00am 26.1 29.0 21.1 74 3.3 SE 7 13 4 7 - - 0.0
27/09:30am 24.6 26.9 19.9 75 3.0 S 7 13 4 7 - - 0.0
27/09:00am 23.9 26.8 19.8 78 2.6 W 4 9 2 5 - - 0.0
27/08:30am 23.0 25.6 20.0 83 1.9 WNW 6 9 3 5 - - 0.0
27/08:00am 21.8 23.8 19.9 89 1.2 SW 9 11 5 6 - - 0.0
27/07:30am 20.5 23.2 19.5 94 0.6 WSW 4 7 2 4 - - 0.0
27/07:00am 19.7 22.5 18.9 95 0.5 WSW 2 6 1 3 - - 0.0
27/06:30am 19.8 21.0 19.1 96 0.4 S 11 15 6 8 - - 0.0
27/06:00am 20.0 22.1 19.3 96 0.4 W 7 9 4 5 - - 0.0
27/05:30am 20.0 21.3 19.3 96 0.4 WSW 11 15 6 8 - - 0.0
27/05:00am 20.5 22.4 19.7 95 0.5 NNW 9 11 5 6 - - 0.0
27/04:30am 20.8 24.4 19.8 94 0.6 CALM 0 0 0 0 - - 0.0
27/04:00am 20.8 23.1 19.8 94 0.6 E 7 9 4 5 - - 0.0
27/03:30am 21.0 23.5 20.2 95 0.5 SE 7 11 4 6 - - 0.0
27/03:00am 21.0 23.6 20.0 94 0.6 E 6 7 3 4 - - 0.0
27/02:30am 21.1 24.8 19.9 93 0.8 CALM 0 0 0 0 - - 0.0
27/02:00am 21.3 24.2 19.9 92 0.9 WSW 4 11 2 6 - - 0.0
27/01:30am 21.6 22.5 20.1 91 1.0 SSW 15 19 8 10 - - 0.0
27/01:00am 22.2 23.1 20.1 88 1.4 N 15 19 8 10 - - 0.0
27/12:30am 22.7 24.4 20.2 86 1.6 W 11 17 6 9 - - 0.0
27/12:00am 21.6 23.7 20.2 92 0.9 W 9 11 5 6 - - 0.0
 
Date/Time
EDT
Temp
°C
App
Temp
°C
Dew
Point
°C
Rel
Hum
%
Delta-T
°C
Wind Press
QNH
hPa
Press
MSL
hPa
Rain since
9am
mm
Dir  Spd
km/h
Gust
km/h
Spd
kts
Gust
kts
26/11:30pm 21.3 24.8 19.6 90 1.1 CALM 0 0 0 0 - - 0.0
26/11:00pm 21.8 25.5 19.9 89 1.2 CALM 0 0 0 0 - - 0.0
26/10:30pm 21.9 24.3 19.6 87 1.5 SSW 6 11 3 6 - - 0.0
26/10:00pm 22.0 25.4 19.4 85 1.7 CALM 0 0 0 0 - - 0.0
26/09:30pm 22.3 24.5 19.5 84 1.8 NNW 7 9 4 5 - - 0.0
26/09:00pm 22.9 25.5 20.4 86 1.6 WNW 7 9 4 5 - - 0.0
26/08:30pm 23.4 26.8 20.2 82 2.1 W 2 13 1 7 - - 0.0
26/08:00pm 23.8 26.6 20.5 82 2.1 N 6 13 3 7 - - 0.0
26/07:30pm 23.9 25.8 20.6 82 2.2 E 11 15 6 8 - - 0.0
26/07:00pm 23.8 24.8 21.1 85 1.8 E 17 30 9 16 - - 0.0
26/06:30pm 25.0 24.2 21.7 82 2.2 SE 28 43 15 23 - - 0.0
26/06:00pm 28.3 30.6 23.4 75 3.4 ESE 17 26 9 14 - - 0.0
26/05:30pm 29.0 31.8 23.0 70 4.1 ENE 13 20 7 11 - - 0.0
26/05:00pm 29.6 33.2 23.1 68 4.5 ENE 9 17 5 9 - - 0.0
26/04:30pm 30.1 32.6 21.7 60 5.7 NE 11 20 6 11 - - 0.0
26/04:00pm 31.1 33.8 21.3 56 6.6 NE 9 20 5 11 - - 0.0
26/03:30pm 32.1 34.4 21.3 53 7.3 NNE 11 19 6 10 - - 0.0

Other formats

Comma delimited format used in spreadsheet applications
http://www.bom.gov.au/fwo/IDN60801/IDN60801.95571.axf

JavaScript Object Notation format (JSON) in row-major order
http://www.bom.gov.au/fwo/IDN60801/IDN60801.95571.json

Data quality

Most of these data are generated automatically and are frequently updated. Quality checks on data are not normally performed. It is possible for incorrect values to appear. Refer to information at About Latest Weather Observations and please check the disclaimer before using these data.